sensor_id;sensor_type;location;lat;lon;timestamp;pressure;altitude;pressure_sealevel;temperature
4421;BMP180;11824;51.178;13.546;2022-09-09T00:00:34;99859.00;;;14.50
4421;BMP180;11824;51.178;13.546;2022-09-09T00:03:14;99859.00;;;14.50
4421;BMP180;11824;51.178;13.546;2022-09-09T00:05:54;99864.00;;;14.50
4421;BMP180;11824;51.178;13.546;2022-09-09T00:08:32;99864.00;;;14.40
4421;BMP180;11824;51.178;13.546;2022-09-09T00:11:04;99854.00;;;14.40
4421;BMP180;11824;51.178;13.546;2022-09-09T00:13:37;99853.00;;;14.40
4421;BMP180;11824;51.178;13.546;2022-09-09T00:16:11;99859.00;;;14.40
4421;BMP180;11824;51.178;13.546;2022-09-09T00:18:54;99857.00;;;14.40
4421;BMP180;11824;51.178;13.546;2022-09-09T00:21:29;99856.00;;;14.40
4421;BMP180;11824;51.178;13.546;2022-09-09T00:24:04;99852.00;;;14.40
4421;BMP180;11824;51.178;13.546;2022-09-09T00:26:40;99860.00;;;14.40
4421;BMP180;11824;51.178;13.546;2022-09-09T00:29:14;99860.00;;;14.30
4421;BMP180;11824;51.178;13.546;2022-09-09T00:31:45;99859.00;;;14.30
4421;BMP180;11824;51.178;13.546;2022-09-09T00:34:19;99860.00;;;14.30
4421;BMP180;11824;51.178;13.546;2022-09-09T00:36:51;99856.00;;;14.30
4421;BMP180;11824;51.178;13.546;2022-09-09T00:39:25;99852.00;;;14.30
4421;BMP180;11824;51.178;13.546;2022-09-09T00:42:09;99854.00;;;14.30
4421;BMP180;11824;51.178;13.546;2022-09-09T00:44:51;99856.00;;;14.20
4421;BMP180;11824;51.178;13.546;2022-09-09T00:47:40;99849.00;;;14.20
4421;BMP180;11824;51.178;13.546;2022-09-09T00:50:25;99850.00;;;14.20
4421;BMP180;11824;51.178;13.546;2022-09-09T00:53:10;99849.00;;;14.20
4421;BMP180;11824;51.178;13.546;2022-09-09T00:55:48;99855.00;;;14.20
4421;BMP180;11824;51.178;13.546;2022-09-09T00:58:17;99857.00;;;14.20
4421;BMP180;11824;51.178;13.546;2022-09-09T01:00:49;99848.00;;;14.20
4421;BMP180;11824;51.178;13.546;2022-09-09T01:03:28;99853.00;;;14.10
4421;BMP180;11824;51.178;13.546;2022-09-09T01:06:16;99857.00;;;14.10
4421;BMP180;11824;51.178;13.546;2022-09-09T01:09:08;99857.00;;;14.10
4421;BMP180;11824;51.178;13.546;2022-09-09T01:11:51;99851.00;;;14.10
4421;BMP180;11824;51.178;13.546;2022-09-09T01:14:35;99853.00;;;14.10
4421;BMP180;11824;51.178;13.546;2022-09-09T01:17:14;99852.00;;;14.00
4421;BMP180;11824;51.178;13.546;2022-09-09T01:19:55;99852.00;;;14.00
4421;BMP180;11824;51.178;13.546;2022-09-09T01:22:34;99853.00;;;14.00
4421;BMP180;11824;51.178;13.546;2022-09-09T01:25:26;99848.00;;;14.00
4421;BMP180;11824;51.178;13.546;2022-09-09T01:28:00;99847.00;;;14.00
4421;BMP180;11824;51.178;13.546;2022-09-09T01:30:31;99852.00;;;13.90
4421;BMP180;11824;51.178;13.546;2022-09-09T01:33:01;99852.00;;;14.00
4421;BMP180;11824;51.178;13.546;2022-09-09T01:35:36;99851.00;;;13.90
4421;BMP180;11824;51.178;13.546;2022-09-09T01:38:06;99857.00;;;13.90
4421;BMP180;11824;51.178;13.546;2022-09-09T01:40:35;99848.00;;;13.90
4421;BMP180;11824;51.178;13.546;2022-09-09T01:43:05;99849.00;;;13.90
4421;BMP180;11824;51.178;13.546;2022-09-09T01:45:35;99857.00;;;13.90
4421;BMP180;11824;51.178;13.546;2022-09-09T01:48:04;99844.00;;;13.90
4421;BMP180;11824;51.178;13.546;2022-09-09T01:50:33;99846.00;;;13.90
4421;BMP180;11824;51.178;13.546;2022-09-09T01:53:02;99850.00;;;13.80
4421;BMP180;11824;51.178;13.546;2022-09-09T01:55:33;99850.00;;;13.80
4421;BMP180;11824;51.178;13.546;2022-09-09T01:58:15;99848.00;;;13.80
4421;BMP180;11824;51.178;13.546;2022-09-09T02:00:50;99847.00;;;13.80
4421;BMP180;11824;51.178;13.546;2022-09-09T02:03:25;99845.00;;;13.80
4421;BMP180;11824;51.178;13.546;2022-09-09T02:06:00;99850.00;;;13.80
4421;BMP180;11824;51.178;13.546;2022-09-09T02:08:36;99848.00;;;13.80
4421;BMP180;11824;51.178;13.546;2022-09-09T02:11:11;99841.00;;;13.80
4421;BMP180;11824;51.178;13.546;2022-09-09T02:13:44;99835.00;;;13.80
4421;BMP180;11824;51.178;13.546;2022-09-09T02:16:17;99849.00;;;13.80
4421;BMP180;11824;51.178;13.546;2022-09-09T02:18:50;99852.00;;;13.80
4421;BMP180;11824;51.178;13.546;2022-09-09T02:21:20;99854.00;;;13.80
4421;BMP180;11824;51.178;13.546;2022-09-09T02:23:51;99854.00;;;13.80
4421;BMP180;11824;51.178;13.546;2022-09-09T02:26:21;99851.00;;;13.80
4421;BMP180;11824;51.178;13.546;2022-09-09T02:28:54;99852.00;;;13.80
4421;BMP180;11824;51.178;13.546;2022-09-09T02:31:25;99853.00;;;13.80
4421;BMP180;11824;51.178;13.546;2022-09-09T02:33:56;99857.00;;;13.80
4421;BMP180;11824;51.178;13.546;2022-09-09T02:36:27;99860.00;;;13.80
4421;BMP180;11824;51.178;13.546;2022-09-09T02:38:57;99853.00;;;13.80
4421;BMP180;11824;51.178;13.546;2022-09-09T02:41:30;99849.00;;;13.80
4421;BMP180;11824;51.178;13.546;2022-09-09T02:44:01;99845.00;;;13.80
4421;BMP180;11824;51.178;13.546;2022-09-09T02:46:54;99852.00;;;13.70
4421;BMP180;11824;51.178;13.546;2022-09-09T02:49:28;99859.00;;;13.70
4421;BMP180;11824;51.178;13.546;2022-09-09T02:52:02;99863.00;;;13.70
4421;BMP180;11824;51.178;13.546;2022-09-09T02:54:34;99861.00;;;13.70
4421;BMP180;11824;51.178;13.546;2022-09-09T02:57:08;99855.00;;;13.70
4421;BMP180;11824;51.178;13.546;2022-09-09T02:59:40;99859.00;;;13.80
4421;BMP180;11824;51.178;13.546;2022-09-09T03:02:08;99856.00;;;13.70
4421;BMP180;11824;51.178;13.546;2022-09-09T03:04:39;99856.00;;;13.70
4421;BMP180;11824;51.178;13.546;2022-09-09T03:07:08;99847.00;;;13.70
4421;BMP180;11824;51.178;13.546;2022-09-09T03:09:37;99867.00;;;13.70
4421;BMP180;11824;51.178;13.546;2022-09-09T03:12:05;99867.00;;;13.70
4421;BMP180;11824;51.178;13.546;2022-09-09T03:14:34;99856.00;;;13.70
4421;BMP180;11824;51.178;13.546;2022-09-09T03:17:04;99857.00;;;13.70
4421;BMP180;11824;51.178;13.546;2022-09-09T03:19:33;99852.00;;;13.70
4421;BMP180;11824;51.178;13.546;2022-09-09T03:22:02;99859.00;;;13.70
4421;BMP180;11824;51.178;13.546;2022-09-09T03:24:31;99851.00;;;13.70
4421;BMP180;11824;51.178;13.546;2022-09-09T03:26:59;99849.00;;;13.60
4421;BMP180;11824;51.178;13.546;2022-09-09T03:29:28;99846.00;;;13.60
4421;BMP180;11824;51.178;13.546;2022-09-09T03:31:56;99851.00;;;13.60
4421;BMP180;11824;51.178;13.546;2022-09-09T03:34:26;99847.00;;;13.60
4421;BMP180;11824;51.178;13.546;2022-09-09T03:36:55;99849.00;;;13.60
4421;BMP180;11824;51.178;13.546;2022-09-09T03:39:23;99850.00;;;13.50
4421;BMP180;11824;51.178;13.546;2022-09-09T03:41:52;99848.00;;;13.50
4421;BMP180;11824;51.178;13.546;2022-09-09T03:44:20;99843.00;;;13.50
4421;BMP180;11824;51.178;13.546;2022-09-09T03:46:49;99845.00;;;13.50
4421;BMP180;11824;51.178;13.546;2022-09-09T03:49:17;99851.00;;;13.50
4421;BMP180;11824;51.178;13.546;2022-09-09T03:51:48;99847.00;;;13.50
4421;BMP180;11824;51.178;13.546;2022-09-09T03:54:17;99850.00;;;13.40
4421;BMP180;11824;51.178;13.546;2022-09-09T03:56:45;99847.00;;;13.40
4421;BMP180;11824;51.178;13.546;2022-09-09T03:59:14;99839.00;;;13.40
4421;BMP180;11824;51.178;13.546;2022-09-09T04:01:43;99846.00;;;13.50
4421;BMP180;11824;51.178;13.546;2022-09-09T04:04:13;99845.00;;;13.50
4421;BMP180;11824;51.178;13.546;2022-09-09T04:06:41;99852.00;;;13.50
4421;BMP180;11824;51.178;13.546;2022-09-09T04:09:11;99849.00;;;13.40
4421;BMP180;11824;51.178;13.546;2022-09-09T04:11:40;99847.00;;;13.50
4421;BMP180;11824;51.178;13.546;2022-09-09T04:14:09;99857.00;;;13.40
4421;BMP180;11824;51.178;13.546;2022-09-09T04:16:37;99857.00;;;13.40
4421;BMP180;11824;51.178;13.546;2022-09-09T04:19:06;99866.00;;;13.50
4421;BMP180;11824;51.178;13.546;2022-09-09T04:21:35;99860.00;;;13.50
4421;BMP180;11824;51.178;13.546;2022-09-09T04:24:03;99863.00;;;13.50
4421;BMP180;11824;51.178;13.546;2022-09-09T04:26:35;99853.00;;;13.50
4421;BMP180;11824;51.178;13.546;2022-09-09T04:29:05;99858.00;;;13.60
4421;BMP180;11824;51.178;13.546;2022-09-09T04:31:34;99866.00;;;13.60
4421;BMP180;11824;51.178;13.546;2022-09-09T04:34:03;99857.00;;;13.60
4421;BMP180;11824;51.178;13.546;2022-09-09T04:36:32;99849.00;;;13.70
4421;BMP180;11824;51.178;13.546;2022-09-09T04:39:02;99851.00;;;13.70
4421;BMP180;11824;51.178;13.546;2022-09-09T04:41:30;99848.00;;;13.70
4421;BMP180;11824;51.178;13.546;2022-09-09T04:44:01;99855.00;;;13.70
4421;BMP180;11824;51.178;13.546;2022-09-09T04:46:30;99856.00;;;13.80
4421;BMP180;11824;51.178;13.546;2022-09-09T04:49:00;99857.00;;;13.80
4421;BMP180;11824;51.178;13.546;2022-09-09T04:51:28;99868.00;;;13.80
4421;BMP180;11824;51.178;13.546;2022-09-09T04:53:58;99862.00;;;13.80
4421;BMP180;11824;51.178;13.546;2022-09-09T04:56:26;99861.00;;;13.90
4421;BMP180;11824;51.178;13.546;2022-09-09T04:58:55;99860.00;;;13.90
4421;BMP180;11824;51.178;13.546;2022-09-09T05:01:25;99854.00;;;14.00
4421;BMP180;11824;51.178;13.546;2022-09-09T05:03:54;99852.00;;;14.00
4421;BMP180;11824;51.178;13.546;2022-09-09T05:06:23;99856.00;;;14.10
4421;BMP180;11824;51.178;13.546;2022-09-09T05:08:52;99861.00;;;14.10
4421;BMP180;11824;51.178;13.546;2022-09-09T05:11:22;99867.00;;;14.20
4421;BMP180;11824;51.178;13.546;2022-09-09T05:13:52;99857.00;;;14.20
4421;BMP180;11824;51.178;13.546;2022-09-09T05:16:21;99864.00;;;14.30
4421;BMP180;11824;51.178;13.546;2022-09-09T05:18:51;99866.00;;;14.40
4421;BMP180;11824;51.178;13.546;2022-09-09T05:21:21;99868.00;;;14.50
4421;BMP180;11824;51.178;13.546;2022-09-09T05:23:51;99864.00;;;14.60
4421;BMP180;11824;51.178;13.546;2022-09-09T05:26:22;99879.00;;;14.70
4421;BMP180;11824;51.178;13.546;2022-09-09T05:28:51;99884.00;;;14.90
4421;BMP180;11824;51.178;13.546;2022-09-09T05:31:20;99880.00;;;15.00
4421;BMP180;11824;51.178;13.546;2022-09-09T05:33:50;99886.00;;;15.20
4421;BMP180;11824;51.178;13.546;2022-09-09T05:36:20;99894.00;;;15.40
4421;BMP180;11824;51.178;13.546;2022-09-09T05:38:49;99889.00;;;15.60
4421;BMP180;11824;51.178;13.546;2022-09-09T05:41:21;99900.00;;;15.90
4421;BMP180;11824;51.178;13.546;2022-09-09T05:43:50;99915.00;;;16.30
4421;BMP180;11824;51.178;13.546;2022-09-09T05:46:20;99903.00;;;16.80
4421;BMP180;11824;51.178;13.546;2022-09-09T05:48:51;99910.00;;;17.00
4421;BMP180;11824;51.178;13.546;2022-09-09T05:51:22;99911.00;;;17.20
4421;BMP180;11824;51.178;13.546;2022-09-09T05:53:51;99900.00;;;17.20
4421;BMP180;11824;51.178;13.546;2022-09-09T05:56:21;99906.00;;;17.30
4421;BMP180;11824;51.178;13.546;2022-09-09T05:58:51;99897.00;;;17.30
4421;BMP180;11824;51.178;13.546;2022-09-09T06:01:23;99907.00;;;17.30
4421;BMP180;11824;51.178;13.546;2022-09-09T06:03:54;99908.00;;;17.40
4421;BMP180;11824;51.178;13.546;2022-09-09T06:06:24;99911.00;;;17.40
4421;BMP180;11824;51.178;13.546;2022-09-09T06:08:55;99908.00;;;17.40
4421;BMP180;11824;51.178;13.546;2022-09-09T06:11:26;99913.00;;;17.40
4421;BMP180;11824;51.178;13.546;2022-09-09T06:13:58;99912.00;;;17.40
4421;BMP180;11824;51.178;13.546;2022-09-09T06:16:29;99920.00;;;17.30
4421;BMP180;11824;51.178;13.546;2022-09-09T06:19:02;99913.00;;;17.30
4421;BMP180;11824;51.178;13.546;2022-09-09T06:21:32;99912.00;;;17.30
4421;BMP180;11824;51.178;13.546;2022-09-09T06:24:01;99915.00;;;17.30
4421;BMP180;11824;51.178;13.546;2022-09-09T06:26:31;99913.00;;;17.30
4421;BMP180;11824;51.178;13.546;2022-09-09T06:29:00;99916.00;;;17.30
4421;BMP180;11824;51.178;13.546;2022-09-09T06:31:32;99918.00;;;17.40
4421;BMP180;11824;51.178;13.546;2022-09-09T06:34:05;99921.00;;;17.50
4421;BMP180;11824;51.178;13.546;2022-09-09T06:36:36;99917.00;;;17.60
4421;BMP180;11824;51.178;13.546;2022-09-09T06:39:05;99926.00;;;17.70
4421;BMP180;11824;51.178;13.546;2022-09-09T06:41:41;99923.00;;;17.90
4421;BMP180;11824;51.178;13.546;2022-09-09T06:44:10;99925.00;;;18.10
4421;BMP180;11824;51.178;13.546;2022-09-09T06:46:39;99912.00;;;18.30
4421;BMP180;11824;51.178;13.546;2022-09-09T06:49:10;99909.00;;;18.50
4421;BMP180;11824;51.178;13.546;2022-09-09T06:51:40;99918.00;;;18.70
4421;BMP180;11824;51.178;13.546;2022-09-09T06:54:11;99911.00;;;18.90
4421;BMP180;11824;51.178;13.546;2022-09-09T06:56:41;99913.00;;;19.10
4421;BMP180;11824;51.178;13.546;2022-09-09T06:59:11;99915.00;;;19.20
4421;BMP180;11824;51.178;13.546;2022-09-09T07:01:42;99915.00;;;19.20
4421;BMP180;11824;51.178;13.546;2022-09-09T07:04:13;99924.00;;;19.30
4421;BMP180;11824;51.178;13.546;2022-09-09T07:06:44;99911.00;;;19.30
4421;BMP180;11824;51.178;13.546;2022-09-09T07:09:14;99915.00;;;19.30
4421;BMP180;11824;51.178;13.546;2022-09-09T07:11:45;99909.00;;;19.30
4421;BMP180;11824;51.178;13.546;2022-09-09T07:14:14;99913.00;;;19.40
4421;BMP180;11824;51.178;13.546;2022-09-09T07:16:44;99911.00;;;19.40
4421;BMP180;11824;51.178;13.546;2022-09-09T07:19:15;99918.00;;;19.60
4421;BMP180;11824;51.178;13.546;2022-09-09T07:21:44;99912.00;;;19.60
4421;BMP180;11824;51.178;13.546;2022-09-09T07:24:12;99911.00;;;19.70
4421;BMP180;11824;51.178;13.546;2022-09-09T07:26:41;99909.00;;;19.70
4421;BMP180;11824;51.178;13.546;2022-09-09T07:29:11;99908.00;;;19.80
4421;BMP180;11824;51.178;13.546;2022-09-09T07:31:46;99917.00;;;19.90
4421;BMP180;11824;51.178;13.546;2022-09-09T07:34:17;99920.00;;;20.00
4421;BMP180;11824;51.178;13.546;2022-09-09T07:36:46;99917.00;;;20.20
4421;BMP180;11824;51.178;13.546;2022-09-09T07:39:16;99926.00;;;20.30
4421;BMP180;11824;51.178;13.546;2022-09-09T07:41:46;99926.00;;;20.40
4421;BMP180;11824;51.178;13.546;2022-09-09T07:44:18;99927.00;;;20.60
4421;BMP180;11824;51.178;13.546;2022-09-09T07:46:49;99925.00;;;20.70
4421;BMP180;11824;51.178;13.546;2022-09-09T07:49:19;99922.00;;;20.80
4421;BMP180;11824;51.178;13.546;2022-09-09T07:51:55;99931.00;;;21.00
4421;BMP180;11824;51.178;13.546;2022-09-09T07:54:26;99935.00;;;21.20
4421;BMP180;11824;51.178;13.546;2022-09-09T07:56:54;99934.00;;;21.30
4421;BMP180;11824;51.178;13.546;2022-09-09T07:59:23;99939.00;;;21.40
4421;BMP180;11824;51.178;13.546;2022-09-09T08:01:52;99939.00;;;21.50
4421;BMP180;11824;51.178;13.546;2022-09-09T08:04:25;99943.00;;;21.70
4421;BMP180;11824;51.178;13.546;2022-09-09T08:06:57;99942.00;;;21.80
4421;BMP180;11824;51.178;13.546;2022-09-09T08:09:27;99943.00;;;22.00
4421;BMP180;11824;51.178;13.546;2022-09-09T08:11:57;99938.00;;;22.10
4421;BMP180;11824;51.178;13.546;2022-09-09T08:14:26;99944.00;;;22.20
4421;BMP180;11824;51.178;13.546;2022-09-09T08:16:54;99946.00;;;22.30
4421;BMP180;11824;51.178;13.546;2022-09-09T08:19:25;99948.00;;;22.40
4421;BMP180;11824;51.178;13.546;2022-09-09T08:21:56;99943.00;;;22.50
4421;BMP180;11824;51.178;13.546;2022-09-09T08:24:24;99947.00;;;22.50
4421;BMP180;11824;51.178;13.546;2022-09-09T08:26:53;99961.00;;;22.50
4421;BMP180;11824;51.178;13.546;2022-09-09T08:29:22;99959.00;;;22.50
4421;BMP180;11824;51.178;13.546;2022-09-09T08:31:53;99967.00;;;22.60
4421;BMP180;11824;51.178;13.546;2022-09-09T08:34:22;99953.00;;;22.70
4421;BMP180;11824;51.178;13.546;2022-09-09T08:36:54;99968.00;;;22.80
4421;BMP180;11824;51.178;13.546;2022-09-09T08:39:23;99966.00;;;22.90
4421;BMP180;11824;51.178;13.546;2022-09-09T08:42:22;99964.00;;;22.90
4421;BMP180;11824;51.178;13.546;2022-09-09T08:45:11;99969.00;;;22.80
4421;BMP180;11824;51.178;13.546;2022-09-09T08:47:47;99970.00;;;22.70
4421;BMP180;11824;51.178;13.546;2022-09-09T08:50:23;99975.00;;;22.60
4421;BMP180;11824;51.178;13.546;2022-09-09T08:52:59;99985.00;;;22.60
4421;BMP180;11824;51.178;13.546;2022-09-09T08:55:37;99984.00;;;22.60
4421;BMP180;11824;51.178;13.546;2022-09-09T08:58:13;99992.00;;;22.70
4421;BMP180;11824;51.178;13.546;2022-09-09T09:00:56;99997.00;;;22.70
4421;BMP180;11824;51.178;13.546;2022-09-09T09:03:34;100000.00;;;22.70
4421;BMP180;11824;51.178;13.546;2022-09-09T09:06:10;99992.00;;;22.60
4421;BMP180;11824;51.178;13.546;2022-09-09T09:08:46;99993.00;;;22.50
4421;BMP180;11824;51.178;13.546;2022-09-09T09:11:18;99995.00;;;22.40
4421;BMP180;11824;51.178;13.546;2022-09-09T09:13:50;99993.00;;;22.30
4421;BMP180;11824;51.178;13.546;2022-09-09T09:16:27;99989.00;;;22.30
4421;BMP180;11824;51.178;13.546;2022-09-09T09:19:00;100002.00;;;22.20
4421;BMP180;11824;51.178;13.546;2022-09-09T09:21:36;100002.00;;;22.20
4421;BMP180;11824;51.178;13.546;2022-09-09T09:24:16;100011.00;;;22.10
4421;BMP180;11824;51.178;13.546;2022-09-09T09:26:48;100003.00;;;21.90
4421;BMP180;11824;51.178;13.546;2022-09-09T09:29:19;100009.00;;;21.70
4421;BMP180;11824;51.178;13.546;2022-09-09T09:31:52;99992.00;;;21.50
4421;BMP180;11824;51.178;13.546;2022-09-09T09:34:23;99991.00;;;21.40
4421;BMP180;11824;51.178;13.546;2022-09-09T09:36:54;99995.00;;;21.30
4421;BMP180;11824;51.178;13.546;2022-09-09T09:39:28;99991.00;;;21.30
4421;BMP180;11824;51.178;13.546;2022-09-09T09:42:18;99990.00;;;21.30
4421;BMP180;11824;51.178;13.546;2022-09-09T09:44:50;99986.00;;;21.40
4421;BMP180;11824;51.178;13.546;2022-09-09T09:47:57;99988.00;;;21.60
4421;BMP180;11824;51.178;13.546;2022-09-09T09:50:34;99986.00;;;21.90
4421;BMP180;11824;51.178;13.546;2022-09-09T09:53:17;99993.00;;;22.10
4421;BMP180;11824;51.178;13.546;2022-09-09T09:56:01;99992.00;;;22.30
4421;BMP180;11824;51.178;13.546;2022-09-09T09:58:37;99989.00;;;22.40
4421;BMP180;11824;51.178;13.546;2022-09-09T10:01:22;99997.00;;;22.40
4421;BMP180;11824;51.178;13.546;2022-09-09T10:03:52;99993.00;;;22.40
4421;BMP180;11824;51.178;13.546;2022-09-09T10:06:30;99982.00;;;22.40
4421;BMP180;11824;51.178;13.546;2022-09-09T10:09:02;99981.00;;;22.30
4421;BMP180;11824;51.178;13.546;2022-09-09T10:11:44;99970.00;;;22.30
4421;BMP180;11824;51.178;13.546;2022-09-09T10:14:20;99969.00;;;22.20
4421;BMP180;11824;51.178;13.546;2022-09-09T10:17:01;99973.00;;;22.10
4421;BMP180;11824;51.178;13.546;2022-09-09T10:19:35;99965.00;;;22.10
4421;BMP180;11824;51.178;13.546;2022-09-09T10:22:25;99958.00;;;22.10
4421;BMP180;11824;51.178;13.546;2022-09-09T10:25:19;99975.00;;;22.10
4421;BMP180;11824;51.178;13.546;2022-09-09T10:28:16;99968.00;;;22.00
4421;BMP180;11824;51.178;13.546;2022-09-09T10:31:05;99965.00;;;22.00
4421;BMP180;11824;51.178;13.546;2022-09-09T10:33:48;99963.00;;;21.90
4421;BMP180;11824;51.178;13.546;2022-09-09T10:36:20;99962.00;;;21.90
4421;BMP180;11824;51.178;13.546;2022-09-09T10:38:53;99966.00;;;21.90
4421;BMP180;11824;51.178;13.546;2022-09-09T10:41:36;99961.00;;;21.90
4421;BMP180;11824;51.178;13.546;2022-09-09T10:44:23;99960.00;;;21.80
4421;BMP180;11824;51.178;13.546;2022-09-09T10:47:26;99961.00;;;21.90
4421;BMP180;11824;51.178;13.546;2022-09-09T10:53:02;99943.00;;;21.90
4421;BMP180;11824;51.178;13.546;2022-09-09T10:55:39;99939.00;;;21.90
4421;BMP180;11824;51.178;13.546;2022-09-09T10:58:14;99934.00;;;21.90
4421;BMP180;11824;51.178;13.546;2022-09-09T11:00:51;99929.00;;;21.90
4421;BMP180;11824;51.178;13.546;2022-09-09T11:03:26;99929.00;;;22.00
4421;BMP180;11824;51.178;13.546;2022-09-09T11:05:59;99924.00;;;22.00
4421;BMP180;11824;51.178;13.546;2022-09-09T11:08:31;99933.00;;;22.00
4421;BMP180;11824;51.178;13.546;2022-09-09T11:11:04;99930.00;;;22.10
4421;BMP180;11824;51.178;13.546;2022-09-09T11:13:38;99930.00;;;22.20
4421;BMP180;11824;51.178;13.546;2022-09-09T11:16:22;99934.00;;;22.20
4421;BMP180;11824;51.178;13.546;2022-09-09T11:18:58;99923.00;;;22.10
4421;BMP180;11824;51.178;13.546;2022-09-09T11:21:31;99923.00;;;22.20
4421;BMP180;11824;51.178;13.546;2022-09-09T11:24:04;99925.00;;;22.20
4421;BMP180;11824;51.178;13.546;2022-09-09T11:26:37;99912.00;;;22.30
4421;BMP180;11824;51.178;13.546;2022-09-09T11:29:26;99917.00;;;22.40
4421;BMP180;11824;51.178;13.546;2022-09-09T11:32:13;99909.00;;;22.50
4421;BMP180;11824;51.178;13.546;2022-09-09T11:34:53;99905.00;;;22.60
4421;BMP180;11824;51.178;13.546;2022-09-09T11:37:49;99904.00;;;22.70
4421;BMP180;11824;51.178;13.546;2022-09-09T11:40:23;99907.00;;;22.80
4421;BMP180;11824;51.178;13.546;2022-09-09T11:43:03;99899.00;;;23.00
4421;BMP180;11824;51.178;13.546;2022-09-09T11:45:34;99905.00;;;23.20
4421;BMP180;11824;51.178;13.546;2022-09-09T11:48:05;99894.00;;;23.20
4421;BMP180;11824;51.178;13.546;2022-09-09T11:50:36;99898.00;;;23.30
4421;BMP180;11824;51.178;13.546;2022-09-09T11:53:18;99902.00;;;23.30
4421;BMP180;11824;51.178;13.546;2022-09-09T11:56:24;99907.00;;;23.30
4421;BMP180;11824;51.178;13.546;2022-09-09T11:58:59;99899.00;;;23.30
4421;BMP180;11824;51.178;13.546;2022-09-09T12:01:39;99898.00;;;23.40
4421;BMP180;11824;51.178;13.546;2022-09-09T12:07:03;99900.00;;;23.80
4421;BMP180;11824;51.178;13.546;2022-09-09T12:09:46;99903.00;;;24.00
4421;BMP180;11824;51.178;13.546;2022-09-09T12:12:24;99903.00;;;24.20
4421;BMP180;11824;51.178;13.546;2022-09-09T12:14:59;99897.00;;;24.40
4421;BMP180;11824;51.178;13.546;2022-09-09T12:17:32;99889.00;;;24.60
4421;BMP180;11824;51.178;13.546;2022-09-09T12:20:14;99890.00;;;24.80
4421;BMP180;11824;51.178;13.546;2022-09-09T12:23:04;99887.00;;;24.90
4421;BMP180;11824;51.178;13.546;2022-09-09T12:25:46;99883.00;;;24.90
4421;BMP180;11824;51.178;13.546;2022-09-09T12:28:19;99884.00;;;24.90
4421;BMP180;11824;51.178;13.546;2022-09-09T12:30:55;99878.00;;;24.90
4421;BMP180;11824;51.178;13.546;2022-09-09T12:33:32;99883.00;;;24.90
4421;BMP180;11824;51.178;13.546;2022-09-09T12:36:04;99886.00;;;24.80
4421;BMP180;11824;51.178;13.546;2022-09-09T12:38:36;99878.00;;;24.70
4421;BMP180;11824;51.178;13.546;2022-09-09T12:41:05;99892.00;;;24.50
4421;BMP180;11824;51.178;13.546;2022-09-09T12:43:34;99893.00;;;24.50
4421;BMP180;11824;51.178;13.546;2022-09-09T12:46:08;99891.00;;;24.50
4421;BMP180;11824;51.178;13.546;2022-09-09T12:48:42;99893.00;;;24.50
4421;BMP180;11824;51.178;13.546;2022-09-09T12:51:21;99888.00;;;24.60
4421;BMP180;11824;51.178;13.546;2022-09-09T12:53:52;99896.00;;;24.70
4421;BMP180;11824;51.178;13.546;2022-09-09T12:56:23;99889.00;;;24.80
4421;BMP180;11824;51.178;13.546;2022-09-09T12:58:55;99881.00;;;24.80
4421;BMP180;11824;51.178;13.546;2022-09-09T13:01:26;99885.00;;;24.90
4421;BMP180;11824;51.178;13.546;2022-09-09T13:03:56;99883.00;;;25.00
4421;BMP180;11824;51.178;13.546;2022-09-09T13:06:28;99870.00;;;25.00
4421;BMP180;11824;51.178;13.546;2022-09-09T13:08:58;99875.00;;;25.00
4421;BMP180;11824;51.178;13.546;2022-09-09T13:11:30;99874.00;;;25.00
4421;BMP180;11824;51.178;13.546;2022-09-09T13:14:00;99880.00;;;24.90
4421;BMP180;11824;51.178;13.546;2022-09-09T13:16:30;99863.00;;;24.90
4421;BMP180;11824;51.178;13.546;2022-09-09T13:19:09;99868.00;;;24.90
4421;BMP180;11824;51.178;13.546;2022-09-09T13:21:39;99866.00;;;24.80
4421;BMP180;11824;51.178;13.546;2022-09-09T13:24:27;99863.00;;;24.80
4421;BMP180;11824;51.178;13.546;2022-09-09T13:26:57;99857.00;;;24.70
4421;BMP180;11824;51.178;13.546;2022-09-09T13:29:29;99855.00;;;24.60
4421;BMP180;11824;51.178;13.546;2022-09-09T13:32:04;99860.00;;;24.60
4421;BMP180;11824;51.178;13.546;2022-09-09T13:34:35;99854.00;;;24.60
4421;BMP180;11824;51.178;13.546;2022-09-09T13:37:06;99857.00;;;24.60
4421;BMP180;11824;51.178;13.546;2022-09-09T13:39:51;99858.00;;;24.60
4421;BMP180;11824;51.178;13.546;2022-09-09T13:42:25;99858.00;;;24.60
4421;BMP180;11824;51.178;13.546;2022-09-09T13:44:55;99867.00;;;24.50
4421;BMP180;11824;51.178;13.546;2022-09-09T13:47:29;99867.00;;;24.40
4421;BMP180;11824;51.178;13.546;2022-09-09T13:49:58;99865.00;;;24.40
4421;BMP180;11824;51.178;13.546;2022-09-09T13:52:39;99857.00;;;24.40
4421;BMP180;11824;51.178;13.546;2022-09-09T13:55:10;99857.00;;;24.40
4421;BMP180;11824;51.178;13.546;2022-09-09T13:57:38;99852.00;;;24.40
4421;BMP180;11824;51.178;13.546;2022-09-09T14:00:11;99854.00;;;24.40
4421;BMP180;11824;51.178;13.546;2022-09-09T14:02:40;99849.00;;;24.40
4421;BMP180;11824;51.178;13.546;2022-09-09T14:05:11;99854.00;;;24.40
4421;BMP180;11824;51.178;13.546;2022-09-09T14:07:41;99851.00;;;24.30
4421;BMP180;11824;51.178;13.546;2022-09-09T14:10:11;99854.00;;;24.40
4421;BMP180;11824;51.178;13.546;2022-09-09T14:12:40;99853.00;;;24.40
4421;BMP180;11824;51.178;13.546;2022-09-09T14:15:11;99853.00;;;24.40
4421;BMP180;11824;51.178;13.546;2022-09-09T14:17:39;99847.00;;;24.50
4421;BMP180;11824;51.178;13.546;2022-09-09T14:20:09;99843.00;;;24.50
4421;BMP180;11824;51.178;13.546;2022-09-09T14:22:40;99841.00;;;24.50
4421;BMP180;11824;51.178;13.546;2022-09-09T14:25:09;99836.00;;;24.50
4421;BMP180;11824;51.178;13.546;2022-09-09T14:27:38;99827.00;;;24.50
4421;BMP180;11824;51.178;13.546;2022-09-09T14:30:08;99826.00;;;24.40
4421;BMP180;11824;51.178;13.546;2022-09-09T14:32:38;99826.00;;;24.30
4421;BMP180;11824;51.178;13.546;2022-09-09T14:35:07;99812.00;;;24.20
4421;BMP180;11824;51.178;13.546;2022-09-09T14:37:36;99825.00;;;24.10
4421;BMP180;11824;51.178;13.546;2022-09-09T14:40:08;99826.00;;;24.10
4421;BMP180;11824;51.178;13.546;2022-09-09T14:42:38;99827.00;;;24.00
4421;BMP180;11824;51.178;13.546;2022-09-09T14:45:11;99824.00;;;24.00
4421;BMP180;11824;51.178;13.546;2022-09-09T14:47:39;99818.00;;;24.00
4421;BMP180;11824;51.178;13.546;2022-09-09T14:50:08;99805.00;;;24.00